Monatstabelle

Bitte in den Auwahlmenüs den gewünschte Zeiraum wählen und die Schaltfläche "Anfrage absenden" betätigen. Beginn der Aufzeichnung ist 2007 - Dezember. Vor diesem Zeitraum sind keine Daten verfügbar.

2018 - August

 

Datum Temperatur (°C) Luftdruck (hPa) Luftfeuchte (%) Regen
(l/m²)
Wind (km/h)
avg: min: max: avg: min: max: avg: min: max: avg: max:
01.08.2018 24,8 18,7 30,9 1016,0 1014,6 1017,2 72 54 86 0,0 4,7 11,3
02.08.2018 22,9 19,0 30,7 1017,9 1016,4 1019,2 81 58 88 0,0 1,5 10,8
03.08.2018 25,0 18,4 31,0 1016,9 1015,7 1019,4 71 49 89 0,0 4,8 10,6
04.08.2018 25,3 18,1 33,3 1015,5 1014,4 1017,0 65 43 89 0,0 4,5 10,1
05.08.2018 22,4 18,4 33,0 1015,6 1014,0 1016,3 78 47 87 3,6 3,5 10,8
06.08.2018 23,9 16,9 30,7 1015,9 1014,4 1018,8 73 52 89 0,0 3,3 7,7
07.08.2018 21,9 18,1 32,1 1013,4 1010,8 1015,8 79 52 89 2,5 3,1 14,0
08.08.2018 25,8 17,8 34,1 1013,2 1011,9 1014,7 67 46 88 0,0 5,8 11,3
09.08.2018 27,0 17,9 34,5 1014,7 1013,2 1016,1 62 44 86 0,0 8,6 15,6
10.08.2018 21,4 17,2 27,5 1020,0 1014,4 1021,8 77 59 87 3,4 1,8 14,3
11.08.2018 20,1 16,1 26,0 1019,9 1017,9 1021,8 71 50 89 2,9 2,9 10,9
12.08.2018 22,4 13,3 29,3 1016,1 1013,1 1020,0 63 42 89 0,0 8,3 15,6
13.08.2018 24,9 16,5 32,7 1008,8 1007,1 1013,2 61 42 84 0,0 4,2 11,3
14.08.2018 19,5 16,3 21,7 1012,5 1008,3 1013,7 85 72 88 6,0 2,7 4,3
15.08.2018 18,5 13,8 25,5 1017,0 1013,7 1018,0 76 56 90 0,0 3,1 15,4
16.08.2018 19,7 13,3 27,7 1016,2 1014,6 1018,9 69 45 89 0,0 0,8 10,3
17.08.2018 22,2 13,8 30,5 1014,5 1013,8 1015,5 65 42 87 0,0 2,5 12,2
18.08.2018 22,6 16,5 31,7 1017,6 1016,3 1018,7 66 41 88 0,0 2,2 8,0
19.08.2018 23,3 15,6 33,2 1017,6 1016,3 1020,2 63 36 86 0,0 2,2 7,1
20.08.2018 23,6 16,6 34,1 1015,7 1014,3 1017,4 62 34 83 0,0 1,5 9,2
21.08.2018 23,6 17,8 31,7 1017,3 1015,4 1019,3 64 43 79 0,0 2,3 11,9
22.08.2018 25,2 16,0 33,4 1016,3 1014,5 1019,2 60 40 86 0,0 4,8 12,6
23.08.2018 24,7 19,4 34,1 1012,7 1010,8 1015,6 60 38 80 0,0 5,0 14,5
24.08.2018 18,9 17,4 30,4 1010,6 1009,3 1011,8 85 50 88 3,7 1,8 10,5
25.08.2018 16,7 14,3 18,3 1011,3 1009,8 1012,3 84 75 89 0,8 1,5 9,3
26.08.2018 13,1 10,1 17,6 1013,9 1011,7 1015,1 81 63 90 7,3 5,4 18,0
27.08.2018 15,7 8,0 24,1 1015,4 1014,2 1016,9 66 40 90 0,0 3,1 9,2
28.08.2018 19,9 12,0 28,0 1017,3 1016,1 1018,6 68 47 85 0,0 3,7 9,2
29.08.2018 17,3 12,4 29,0 1014,3 1012,8 1017,2 75 46 88 0,0 8,1 16,9
30.08.2018 19,0 15,6 29,5 1016,5 1012,6 1018,3 78 48 88 3,8 2,4 9,7
31.08.2018 18,1 14,4 21,5 1016,6 1015,6 1019,0 81 74 89 0,3 0,5 3,7
avg. 21,6 1015,4 71   ---
  Summe Regen: 34,3  
 
Min-Datum 27.08.2018 13.08.2018 20.08.2018 --- ---
Min-Zeit 06:14 19:06 12:42 --- ---
Minimum 8,0 1007,1 34 --- ---
 

Max-Datum

09.08.2018 10.08.2018 15.08.2018 26.08.2018 26.08.2018
Max-Zeit 13:56 21:44 07:36 02:00 13:48
Maximum 34,5 1021,8 90 7,3 18,0
 

 

  Letztes Jahr
gleiches Monat
Eistage max < 0°C 0 0
Frosttage min < 0°C 0 0
Sommertage max >=25°C 26 21
Heiße Tage max >=30°C 18 12

 

<<< nach oben >>>